createdAt,value
2018-08-24T00:00:09.266Z,2.10
2018-08-24T00:01:09.259Z,3.30
2018-08-24T00:02:09.545Z,5.40
2018-08-24T00:03:09.281Z,3.40
2018-08-24T00:04:09.507Z,3.40
2018-08-24T00:05:09.541Z,2.80
2018-08-24T00:06:09.130Z,2.60
2018-08-24T00:07:09.235Z,3.30
2018-08-24T00:08:09.191Z,2.10
2018-08-24T00:09:09.177Z,2.30
2018-08-24T00:10:09.218Z,2.30
2018-08-24T00:11:09.075Z,3.60
2018-08-24T00:12:09.858Z,3.30
2018-08-24T00:13:09.055Z,2.70
2018-08-24T00:14:09.133Z,3.30
2018-08-24T00:15:09.019Z,3.10
2018-08-24T00:16:09.081Z,2.90
2018-08-24T00:17:09.276Z,2.40
2018-08-24T00:18:09.350Z,2.80
2018-08-24T00:19:09.064Z,2.60
2018-08-24T00:20:08.992Z,2.00
2018-08-24T00:21:08.984Z,3.60
2018-08-24T00:22:08.968Z,2.50
2018-08-24T00:23:09.199Z,3.20
2018-08-24T00:24:09.024Z,2.60
2018-08-24T00:25:08.913Z,2.10
2018-08-24T00:26:09.026Z,3.00
2018-08-24T00:27:08.927Z,1.80
2018-08-24T00:28:09.248Z,2.50
2018-08-24T00:29:09.134Z,2.80
2018-08-24T00:30:08.862Z,3.00
2018-08-24T00:31:08.860Z,2.50
2018-08-24T00:32:08.970Z,2.60
2018-08-24T00:33:08.851Z,2.10
2018-08-24T00:34:08.979Z,3.50
2018-08-24T00:35:08.871Z,3.70
2018-08-24T00:36:09.430Z,2.50
2018-08-24T00:37:08.926Z,2.60
2018-08-24T00:38:08.799Z,4.10
2018-08-24T00:39:08.907Z,2.80
2018-08-24T00:40:08.850Z,2.40
2018-08-24T00:41:08.740Z,1.60
2018-08-24T00:42:08.855Z,1.90
2018-08-24T00:43:08.826Z,1.80
2018-08-24T00:44:08.968Z,1.60
2018-08-24T00:45:08.716Z,3.20
2018-08-24T00:46:08.784Z,2.30
2018-08-24T00:47:08.796Z,2.90
2018-08-24T00:48:08.789Z,1.70
2018-08-24T00:49:08.758Z,3.30
2018-08-24T00:50:08.751Z,3.50
2018-08-24T00:51:08.990Z,1.70
2018-08-24T00:52:08.639Z,2.00
2018-08-24T00:53:08.987Z,2.20
2018-08-24T00:54:08.604Z,3.30
2018-08-24T00:55:08.677Z,2.50
2018-08-24T00:56:08.592Z,2.10
2018-08-24T00:57:08.676Z,1.80
2018-08-24T00:58:08.826Z,1.60
2018-08-24T00:59:08.676Z,2.30
2018-08-24T01:00:08.634Z,1.90
2018-08-24T01:01:08.635Z,2.90
2018-08-24T01:02:08.532Z,2.20
2018-08-24T01:03:08.867Z,2.20
2018-08-24T01:04:08.753Z,2.20
2018-08-24T01:05:08.852Z,1.90
2018-08-24T01:06:08.969Z,2.40
2018-08-24T01:07:08.480Z,2.80
2018-08-24T01:08:08.456Z,3.70
2018-08-24T01:09:08.548Z,2.10
2018-08-24T01:10:08.761Z,2.80
2018-08-24T01:11:08.438Z,1.80
2018-08-24T01:12:08.493Z,1.40
2018-08-24T01:13:08.415Z,2.30
2018-08-24T01:14:08.405Z,1.70
2018-08-24T01:15:08.385Z,1.60
2018-08-24T01:16:08.742Z,1.50
2018-08-24T01:17:08.437Z,2.10
2018-08-24T01:18:08.464Z,2.00
2018-08-24T01:19:08.466Z,2.30
2018-08-24T01:20:08.344Z,1.20
2018-08-24T01:21:08.330Z,1.70
2018-08-24T01:22:08.383Z,2.00
2018-08-24T01:23:08.418Z,1.50
2018-08-24T01:24:08.285Z,2.00
2018-08-24T01:25:08.372Z,1.40
2018-08-24T01:26:08.300Z,2.10
2018-08-24T01:27:08.253Z,1.80
2018-08-24T01:28:08.253Z,2.00
2018-08-24T01:29:08.244Z,1.60
2018-08-24T01:30:11.032Z,1.30
2018-08-24T01:31:08.208Z,1.90
2018-08-24T01:32:08.277Z,1.70
2018-08-24T01:33:08.199Z,1.40
2018-08-24T01:34:08.288Z,1.50
2018-08-24T01:35:08.179Z,1.80
2018-08-24T01:36:08.155Z,2.50
2018-08-24T01:37:08.277Z,1.40
2018-08-24T01:38:08.249Z,1.20
2018-08-24T01:39:08.123Z,2.20
2018-08-24T01:40:08.743Z,1.30
2018-08-24T01:41:08.099Z,2.30
2018-08-24T01:42:08.091Z,1.50
2018-08-24T01:43:08.105Z,1.00
2018-08-24T01:44:08.200Z,1.10
2018-08-24T01:45:08.313Z,1.00
2018-08-24T01:46:08.049Z,1.70
2018-08-24T01:47:08.134Z,1.00
2018-08-24T01:48:08.102Z,0.90
2018-08-24T01:49:08.019Z,1.10
2018-08-24T01:50:08.342Z,1.20
2018-08-24T01:51:07.994Z,0.80
2018-08-24T01:52:07.983Z,1.70
2018-08-24T01:53:07.983Z,1.20
2018-08-24T01:54:07.961Z,0.90
2018-08-24T01:55:07.949Z,1.90
2018-08-24T01:56:08.455Z,1.10
2018-08-24T01:57:07.952Z,1.40
2018-08-24T01:58:07.931Z,1.50
2018-08-24T01:59:07.951Z,0.80
2018-08-24T02:00:08.420Z,1.20
2018-08-24T02:01:08.158Z,1.90
2018-08-24T02:02:08.014Z,1.50
2018-08-24T02:03:07.880Z,0.80
2018-08-24T02:04:07.972Z,1.10
2018-08-24T02:05:07.854Z,1.00
2018-08-24T02:06:07.943Z,0.90
2018-08-24T02:07:07.835Z,1.20
2018-08-24T02:08:07.828Z,0.90
2018-08-24T02:09:07.925Z,1.10
2018-08-24T02:10:07.786Z,1.20
2018-08-24T02:11:07.775Z,1.20
2018-08-24T02:12:07.764Z,1.30
2018-08-24T02:13:07.784Z,2.00
2018-08-24T02:14:07.830Z,2.20
2018-08-24T02:15:07.757Z,0.70
2018-08-24T02:16:07.735Z,1.00
2018-08-24T02:17:07.713Z,0.80
2018-08-24T02:18:07.969Z,1.70
2018-08-24T02:19:07.706Z,1.00
2018-08-24T02:20:07.692Z,1.30
2018-08-24T02:21:07.770Z,1.30
2018-08-24T02:22:07.675Z,1.10
2018-08-24T02:23:07.938Z,1.80
2018-08-24T02:24:07.676Z,1.40
2018-08-24T02:25:07.895Z,1.10
2018-08-24T02:26:07.873Z,1.00
2018-08-24T02:27:07.872Z,0.80
2018-08-24T02:28:07.687Z,1.30
2018-08-24T02:29:07.682Z,0.90
2018-08-24T02:30:10.221Z,1.20
2018-08-24T02:31:07.639Z,1.00
2018-08-24T02:32:07.562Z,1.40
2018-08-24T02:33:07.563Z,1.10
2018-08-24T02:34:07.545Z,1.90
2018-08-24T02:35:07.780Z,1.50
2018-08-24T02:36:07.596Z,2.40
2018-08-24T02:37:07.520Z,1.60
2018-08-24T02:38:07.514Z,0.90
2018-08-24T02:39:07.517Z,1.00
2018-08-24T02:40:07.537Z,1.40
2018-08-24T02:41:07.568Z,1.40
2018-08-24T02:42:07.443Z,0.90
2018-08-24T02:43:07.447Z,1.10
2018-08-24T02:44:07.575Z,1.10
2018-08-24T02:45:07.474Z,1.00
2018-08-24T02:46:07.484Z,1.50
2018-08-24T02:47:07.476Z,1.50
2018-08-24T02:48:07.397Z,1.10
2018-08-24T02:49:07.386Z,1.80
2018-08-24T02:50:07.724Z,1.00
2018-08-24T02:51:07.349Z,1.30
2018-08-24T02:52:07.507Z,1.80
2018-08-24T02:53:07.451Z,1.40
2018-08-24T02:54:07.329Z,0.70
2018-08-24T02:55:07.303Z,1.00
2018-08-24T02:56:07.315Z,1.10
2018-08-24T02:57:07.379Z,1.30
2018-08-24T02:58:07.542Z,2.10
2018-08-24T02:59:07.274Z,1.00
2018-08-24T03:00:07.504Z,1.00
2018-08-24T03:01:07.406Z,1.10
2018-08-24T03:02:07.382Z,1.80
2018-08-24T03:03:07.604Z,0.90
2018-08-24T03:04:07.363Z,1.20
2018-08-24T03:05:07.426Z,1.00
2018-08-24T03:06:07.806Z,1.50
2018-08-24T03:07:07.294Z,1.00
2018-08-24T03:08:07.337Z,1.00
2018-08-24T03:09:07.278Z,1.00
2018-08-24T03:10:07.371Z,1.50
2018-08-24T03:11:07.247Z,0.90
2018-08-24T03:12:07.230Z,1.40
2018-08-24T03:13:07.395Z,1.10
2018-08-24T03:14:07.246Z,1.00
2018-08-24T03:15:07.486Z,1.20
2018-08-24T03:16:07.220Z,0.90
2018-08-24T03:17:07.348Z,1.00
2018-08-24T03:18:07.187Z,1.50
2018-08-24T03:19:07.399Z,1.60
2018-08-24T03:20:07.181Z,1.70
2018-08-24T03:21:07.149Z,1.30
2018-08-24T03:22:07.397Z,1.80
2018-08-24T03:23:07.014Z,1.20
2018-08-24T03:24:07.042Z,1.10
2018-08-24T03:25:07.004Z,1.30
2018-08-24T03:26:06.994Z,1.00
2018-08-24T03:27:07.091Z,0.80
2018-08-24T03:28:07.107Z,1.30
2018-08-24T03:29:06.959Z,1.00
2018-08-24T03:30:06.969Z,1.40
2018-08-24T03:31:07.284Z,1.10
2018-08-24T03:32:07.035Z,1.80
2018-08-24T03:33:07.232Z,1.30
2018-08-24T03:34:07.009Z,1.60
2018-08-24T03:35:06.888Z,1.20
2018-08-24T03:36:06.881Z,1.30
2018-08-24T03:37:07.085Z,0.80
2018-08-24T03:38:06.962Z,1.00
2018-08-24T03:39:07.216Z,1.20
2018-08-24T03:40:06.954Z,1.00
2018-08-24T03:41:06.968Z,1.90
2018-08-24T03:42:06.915Z,1.90
2018-08-24T03:43:06.910Z,1.10
2018-08-24T03:44:06.941Z,1.90
2018-08-24T03:45:07.115Z,1.60
2018-08-24T03:46:07.046Z,0.90
2018-08-24T03:47:07.121Z,1.40
2018-08-24T03:48:07.028Z,0.90
2018-08-24T03:49:06.881Z,1.10
2018-08-24T03:50:08.244Z,2.20
2018-08-24T03:51:06.839Z,1.60
2018-08-24T03:52:06.794Z,1.20
2018-08-24T03:53:06.857Z,1.00
2018-08-24T03:54:06.830Z,1.00
2018-08-24T03:55:06.686Z,1.00
2018-08-24T03:56:06.772Z,1.80
2018-08-24T03:57:06.763Z,1.00
2018-08-24T03:58:06.743Z,1.40
2018-08-24T03:59:06.887Z,0.90
2018-08-24T04:00:06.897Z,0.90
2018-08-24T04:01:06.866Z,1.30
2018-08-24T04:02:06.717Z,1.50
2018-08-24T04:03:06.590Z,1.20
2018-08-24T04:04:06.690Z,1.20
2018-08-24T04:05:06.685Z,1.00
2018-08-24T04:06:06.674Z,1.50
2018-08-24T04:07:07.097Z,1.90
2018-08-24T04:08:06.660Z,1.00
2018-08-24T04:09:06.652Z,1.00
2018-08-24T04:10:06.634Z,1.00
2018-08-24T04:11:06.498Z,0.90
2018-08-24T04:12:06.546Z,1.20
2018-08-24T04:13:06.596Z,0.90
2018-08-24T04:14:06.724Z,1.20
2018-08-24T04:15:06.599Z,2.20
2018-08-24T04:16:06.549Z,1.70
2018-08-24T04:17:06.573Z,1.40
2018-08-24T04:18:06.694Z,1.40
2018-08-24T04:19:07.029Z,1.10
2018-08-24T04:20:06.695Z,1.00
2018-08-24T04:21:06.490Z,1.20
2018-08-24T04:22:06.494Z,1.00
2018-08-24T04:23:06.459Z,1.00
2018-08-24T04:24:06.481Z,1.20
2018-08-24T04:25:06.733Z,1.50
2018-08-24T04:26:06.502Z,1.60
2018-08-24T04:27:06.456Z,1.10
2018-08-24T04:28:06.421Z,2.20
2018-08-24T04:29:06.420Z,1.40
2018-08-24T04:30:06.424Z,1.30
2018-08-24T04:31:06.411Z,2.30
2018-08-24T04:32:06.621Z,2.00
2018-08-24T04:33:06.266Z,1.40
2018-08-24T04:34:06.262Z,1.30
2018-08-24T04:35:06.536Z,1.50
2018-08-24T04:36:06.480Z,1.30
2018-08-24T04:37:06.218Z,1.10
2018-08-24T04:38:06.319Z,1.40
2018-08-24T04:39:06.335Z,2.10
2018-08-24T04:40:06.195Z,1.30
2018-08-24T04:41:06.293Z,1.50
2018-08-24T04:42:06.299Z,1.70
2018-08-24T04:43:06.153Z,1.40
2018-08-24T04:44:06.269Z,1.10
2018-08-24T04:45:06.256Z,1.30
2018-08-24T04:46:06.257Z,2.00
2018-08-24T04:47:06.233Z,1.20
2018-08-24T04:48:06.475Z,1.30
2018-08-24T04:49:06.244Z,1.50
2018-08-24T04:50:06.571Z,1.80
2018-08-24T04:51:06.182Z,1.60
2018-08-24T04:52:06.198Z,2.50
2018-08-24T04:53:06.067Z,1.20
2018-08-24T04:54:06.141Z,1.80
2018-08-24T04:55:06.423Z,1.90
2018-08-24T04:56:06.066Z,1.40
2018-08-24T04:57:06.106Z,1.40
2018-08-24T04:58:08.026Z,1.90
2018-08-24T04:59:06.115Z,1.90
2018-08-24T05:00:06.085Z,1.60
2018-08-24T05:01:06.598Z,1.80
2018-08-24T05:02:06.076Z,1.10
2018-08-24T05:03:06.052Z,1.40
2018-08-24T05:04:06.049Z,1.30
2018-08-24T05:05:06.041Z,2.50
2018-08-24T05:06:05.906Z,1.20
2018-08-24T05:07:06.247Z,2.60
2018-08-24T05:08:05.968Z,1.20
2018-08-24T05:09:05.867Z,2.00
2018-08-24T05:10:06.402Z,2.20
2018-08-24T05:11:06.239Z,1.80
2018-08-24T05:12:05.855Z,1.40
2018-08-24T05:13:05.945Z,2.20
2018-08-24T05:14:05.891Z,1.40
2018-08-24T05:15:05.830Z,1.70
2018-08-24T05:16:05.953Z,1.30
2018-08-24T05:17:05.911Z,1.60
2018-08-24T05:18:05.774Z,2.10
2018-08-24T05:19:05.883Z,1.30
2018-08-24T05:20:05.868Z,1.40
2018-08-24T05:21:05.759Z,2.10
2018-08-24T05:22:05.888Z,1.70
2018-08-24T05:23:05.875Z,1.50
2018-08-24T05:24:05.722Z,1.50
2018-08-24T05:25:05.830Z,1.70
2018-08-24T05:26:05.697Z,1.40
2018-08-24T05:27:05.813Z,2.00
2018-08-24T05:28:05.726Z,2.20
2018-08-24T05:29:05.691Z,1.40
2018-08-24T05:30:05.754Z,1.30
2018-08-24T05:31:06.031Z,1.60
2018-08-24T05:32:05.746Z,1.60
2018-08-24T05:33:05.728Z,2.00
2018-08-24T05:34:05.596Z,1.70
2018-08-24T05:35:05.712Z,1.20
2018-08-24T05:36:05.751Z,1.60
2018-08-24T05:37:05.948Z,1.20
2018-08-24T05:38:05.682Z,2.30
2018-08-24T05:39:05.909Z,1.40
2018-08-24T05:40:05.542Z,2.30
2018-08-24T05:41:05.766Z,1.20
2018-08-24T05:42:05.947Z,1.30
2018-08-24T05:43:05.646Z,1.60
2018-08-24T05:44:05.610Z,2.40
2018-08-24T05:45:05.581Z,1.70
2018-08-24T05:46:05.498Z,1.60
2018-08-24T05:47:05.482Z,1.70
2018-08-24T05:48:05.498Z,1.40
2018-08-24T05:49:05.550Z,1.40
2018-08-24T05:50:05.448Z,1.70
2018-08-24T05:51:05.540Z,1.30
2018-08-24T05:52:05.526Z,1.30
2018-08-24T05:53:05.422Z,3.70
2018-08-24T05:54:05.764Z,2.40
2018-08-24T05:55:05.484Z,1.60
2018-08-24T05:56:05.714Z,1.20
2018-08-24T05:57:05.447Z,1.90
2018-08-24T05:58:05.474Z,2.10
2018-08-24T05:59:05.446Z,2.00
2018-08-24T06:00:05.328Z,1.80
2018-08-24T06:01:05.458Z,1.30
2018-08-24T06:02:05.310Z,2.10
2018-08-24T06:03:05.421Z,1.60
2018-08-24T06:04:05.280Z,2.10
2018-08-24T06:05:05.520Z,1.60
2018-08-24T06:06:05.388Z,2.10
2018-08-24T06:07:05.249Z,1.20
2018-08-24T06:08:05.247Z,1.80
2018-08-24T06:09:05.232Z,1.60
2018-08-24T06:10:05.352Z,2.00
2018-08-24T06:11:05.466Z,1.60
2018-08-24T06:12:05.231Z,1.40
2018-08-24T06:13:05.307Z,2.40
2018-08-24T06:14:05.305Z,1.60
2018-08-24T06:15:05.334Z,2.10
2018-08-24T06:16:05.260Z,1.60
2018-08-24T06:17:05.219Z,2.50
2018-08-24T06:18:05.707Z,1.40
2018-08-24T06:19:05.231Z,1.70
2018-08-24T06:20:05.229Z,2.00
2018-08-24T06:21:05.253Z,1.90
2018-08-24T06:22:05.228Z,1.60
2018-08-24T06:23:05.076Z,2.80
2018-08-24T06:24:05.206Z,2.40
2018-08-24T06:25:05.798Z,1.80
2018-08-24T06:26:05.080Z,2.10
2018-08-24T06:27:05.111Z,1.70
2018-08-24T06:28:05.184Z,1.50
2018-08-24T06:29:05.011Z,2.60
2018-08-24T06:30:05.926Z,2.50
2018-08-24T06:31:05.099Z,2.20
2018-08-24T06:32:05.597Z,1.80
2018-08-24T06:33:05.172Z,2.70
2018-08-24T06:34:05.086Z,1.50
2018-08-24T06:35:05.023Z,2.20
2018-08-24T06:36:05.865Z,1.90
2018-08-24T06:37:05.165Z,1.70
2018-08-24T06:38:05.296Z,1.60
2018-08-24T06:39:04.904Z,3.00
2018-08-24T06:40:05.022Z,2.10
2018-08-24T06:41:05.010Z,3.10
2018-08-24T06:42:05.331Z,2.50
2018-08-24T06:43:04.905Z,2.20
2018-08-24T06:44:05.030Z,1.90
2018-08-24T06:45:05.042Z,2.40
2018-08-24T06:46:04.839Z,2.40
2018-08-24T06:47:04.983Z,2.60
2018-08-24T06:48:04.983Z,2.40
2018-08-24T06:49:04.905Z,1.60
2018-08-24T06:50:04.793Z,1.80
2018-08-24T06:51:04.808Z,4.10
2018-08-24T06:52:04.913Z,3.10
2018-08-24T06:53:05.192Z,1.80
2018-08-24T06:54:04.811Z,3.00
2018-08-24T06:55:04.885Z,2.80
2018-08-24T06:56:05.157Z,3.30
2018-08-24T06:57:04.748Z,4.20
2018-08-24T06:58:04.841Z,2.80
2018-08-24T06:59:04.811Z,4.20
2018-08-24T07:00:05.077Z,3.20
2018-08-24T07:01:04.822Z,1.80
2018-08-24T07:02:04.939Z,2.70
2018-08-24T07:03:04.796Z,2.40
2018-08-24T07:04:04.635Z,2.20
2018-08-24T07:05:04.776Z,2.60
2018-08-24T07:06:04.954Z,3.80
2018-08-24T07:07:04.758Z,2.40
2018-08-24T07:08:04.962Z,2.80
2018-08-24T07:09:04.583Z,3.00
2018-08-24T07:10:04.978Z,3.00
2018-08-24T07:11:04.693Z,4.40
2018-08-24T07:12:04.705Z,3.90
2018-08-24T07:13:04.763Z,2.60
2018-08-24T07:14:04.534Z,3.30
2018-08-24T07:15:04.655Z,2.30
2018-08-24T07:16:04.956Z,2.30
2018-08-24T07:17:04.587Z,2.80
2018-08-24T07:18:04.504Z,2.80
2018-08-24T07:19:04.618Z,3.70
2018-08-24T07:20:04.475Z,3.20
2018-08-24T07:21:04.574Z,4.00
2018-08-24T07:22:04.838Z,4.00
2018-08-24T07:23:04.784Z,4.30
2018-08-24T07:24:04.432Z,5.00
2018-08-24T07:25:05.330Z,7.40
2018-08-24T07:26:04.534Z,8.00
2018-08-24T07:27:04.559Z,4.60
2018-08-24T07:28:04.743Z,6.50
2018-08-24T07:29:04.981Z,5.80
2018-08-24T07:30:04.381Z,6.70
2018-08-24T07:31:04.658Z,5.90
2018-08-24T07:32:04.503Z,11.60
2018-08-24T07:33:04.923Z,8.40
2018-08-24T07:34:04.895Z,7.00
2018-08-24T07:35:04.681Z,9.30
2018-08-24T07:36:04.548Z,4.80
2018-08-24T07:37:04.422Z,4.60
2018-08-24T07:38:04.399Z,9.00
2018-08-24T07:39:04.401Z,15.40
2018-08-24T07:40:04.274Z,10.70
2018-08-24T07:41:04.312Z,11.60
2018-08-24T07:42:04.379Z,14.30
2018-08-24T07:43:04.382Z,13.00
2018-08-24T07:44:04.468Z,9.50
2018-08-24T07:45:04.268Z,12.40
2018-08-24T07:46:04.275Z,11.40
2018-08-24T07:47:05.020Z,6.70
2018-08-24T07:48:04.341Z,8.10
2018-08-24T07:49:04.287Z,9.00
2018-08-24T07:50:04.159Z,6.90
2018-08-24T07:51:04.151Z,8.90
2018-08-24T07:52:04.270Z,7.50
2018-08-24T07:53:04.214Z,8.40
2018-08-24T07:54:04.341Z,10.50
2018-08-24T07:55:04.191Z,12.80
2018-08-24T07:56:04.085Z,11.10
2018-08-24T07:57:04.290Z,12.80
2018-08-24T07:58:04.329Z,10.90
2018-08-24T07:59:04.192Z,10.60
2018-08-24T08:00:04.035Z,10.90
2018-08-24T08:01:04.034Z,9.20
2018-08-24T08:02:04.150Z,15.00
2018-08-24T08:03:04.124Z,9.40
2018-08-24T08:04:04.593Z,13.00
2018-08-24T08:05:04.117Z,10.60
2018-08-24T08:06:04.454Z,9.70
2018-08-24T08:07:04.383Z,11.50
2018-08-24T08:08:04.326Z,9.80
2018-08-24T08:09:04.070Z,11.40
2018-08-24T08:10:04.054Z,8.60
2018-08-24T08:11:04.069Z,12.40
2018-08-24T08:12:04.074Z,19.40
2018-08-24T08:13:04.119Z,14.60
2018-08-24T08:14:04.360Z,12.00
2018-08-24T08:15:04.146Z,13.20
2018-08-24T08:16:04.265Z,10.70
2018-08-24T08:17:04.004Z,10.80
2018-08-24T08:18:03.998Z,14.40
2018-08-24T08:19:03.953Z,10.50
2018-08-24T08:20:03.824Z,13.20
2018-08-24T08:21:03.923Z,12.50
2018-08-24T08:22:04.189Z,14.60
2018-08-24T08:23:04.390Z,18.70
2018-08-24T08:24:04.177Z,10.90
2018-08-24T08:25:03.782Z,12.50
2018-08-24T08:26:04.494Z,14.10
2018-08-24T08:27:03.861Z,13.40
2018-08-24T08:28:03.894Z,12.90
2018-08-24T08:29:03.846Z,9.80
2018-08-24T08:30:03.715Z,15.40
2018-08-24T08:31:04.122Z,11.60
2018-08-24T08:32:04.074Z,13.00
2018-08-24T08:33:03.830Z,11.80
2018-08-24T08:34:03.818Z,17.40
2018-08-24T08:35:03.792Z,25.50
2018-08-24T08:36:03.829Z,23.00
2018-08-24T08:37:03.719Z,26.00
2018-08-24T08:38:03.773Z,21.60
2018-08-24T08:39:04.096Z,19.60
2018-08-24T08:40:04.095Z,14.10
2018-08-24T08:41:03.772Z,15.50
2018-08-24T08:42:03.641Z,14.90
2018-08-24T08:43:03.962Z,40.60
2018-08-24T08:44:03.704Z,19.30
2018-08-24T08:45:03.872Z,12.50
2018-08-24T08:46:03.947Z,11.40
2018-08-24T08:47:03.535Z,15.90
2018-08-24T08:48:03.674Z,19.40
2018-08-24T08:49:03.657Z,13.30
2018-08-24T08:50:03.621Z,11.10
2018-08-24T08:51:03.952Z,13.80
2018-08-24T08:52:03.965Z,11.20
2018-08-24T08:53:03.476Z,11.70
2018-08-24T08:54:03.587Z,8.40
2018-08-24T08:55:05.006Z,11.20
2018-08-24T08:56:03.614Z,10.10
2018-08-24T08:57:03.445Z,10.00
2018-08-24T08:58:03.534Z,10.30
2018-08-24T08:59:03.514Z,9.80
2018-08-24T09:00:03.507Z,10.60
2018-08-24T09:01:03.414Z,9.90
2018-08-24T09:02:03.575Z,9.00
2018-08-24T09:03:03.571Z,11.30
2018-08-24T09:04:03.487Z,7.40
2018-08-24T09:05:02.462Z,13.40
2018-08-24T09:06:03.547Z,9.40
2018-08-24T09:07:03.528Z,13.20
2018-08-24T09:08:03.425Z,15.20
2018-08-24T09:09:03.319Z,12.70
2018-08-24T09:10:03.656Z,14.10
2018-08-24T09:11:03.438Z,12.60
2018-08-24T09:12:03.267Z,10.80
2018-08-24T09:13:03.569Z,10.40
2018-08-24T09:14:03.361Z,13.30
2018-08-24T09:15:03.340Z,9.90
2018-08-24T09:16:03.232Z,11.40
2018-08-24T09:17:04.216Z,11.50
2018-08-24T09:18:03.206Z,10.00
2018-08-24T09:19:04.186Z,11.10
2018-08-24T09:20:02.194Z,12.10
2018-08-24T09:21:03.237Z,9.50
2018-08-24T09:22:03.266Z,8.50
2018-08-24T09:23:03.148Z,7.90
2018-08-24T09:24:03.312Z,9.90
2018-08-24T09:25:03.286Z,9.70
2018-08-24T09:26:03.172Z,9.70
2018-08-24T09:27:03.301Z,12.40
2018-08-24T09:28:02.296Z,9.00
2018-08-24T09:29:03.342Z,14.90
2018-08-24T09:30:03.133Z,11.90
2018-08-24T09:31:03.219Z,10.60
2018-08-24T09:32:03.058Z,9.00
2018-08-24T09:33:03.883Z,9.90
2018-08-24T09:34:03.415Z,7.30
2018-08-24T09:35:03.380Z,13.40
2018-08-24T09:36:03.157Z,10.20
2018-08-24T09:37:02.994Z,8.90
2018-08-24T09:38:03.138Z,15.20
2018-08-24T09:39:02.988Z,12.20
2018-08-24T09:40:02.962Z,7.40
2018-08-24T09:41:03.080Z,8.40
2018-08-24T09:42:02.939Z,9.70
2018-08-24T09:43:03.397Z,11.70
2018-08-24T09:44:03.050Z,10.40
2018-08-24T09:45:03.041Z,12.10
2018-08-24T09:46:03.044Z,11.70
2018-08-24T09:47:02.940Z,10.90
2018-08-24T09:48:03.032Z,9.80
2018-08-24T09:49:02.937Z,13.80
2018-08-24T09:50:03.221Z,7.60
2018-08-24T09:51:02.846Z,7.70
2018-08-24T09:52:02.847Z,9.60
2018-08-24T09:53:02.973Z,8.70
2018-08-24T09:54:02.843Z,9.10
2018-08-24T09:55:02.870Z,9.40
2018-08-24T09:56:02.824Z,8.10
2018-08-24T09:57:03.022Z,8.20
2018-08-24T09:58:02.826Z,13.90
2018-08-24T09:59:02.158Z,8.70
2018-08-24T10:00:03.142Z,9.20
2018-08-24T10:01:02.844Z,12.40
2018-08-24T10:02:02.989Z,14.40
2018-08-24T10:03:02.825Z,12.80
2018-08-24T10:04:02.842Z,10.10
2018-08-24T10:05:02.956Z,9.20
2018-08-24T10:06:02.683Z,11.20
2018-08-24T10:07:02.693Z,10.00
2018-08-24T10:08:02.839Z,16.50
2018-08-24T10:09:02.783Z,9.50
2018-08-24T10:10:02.804Z,11.70
2018-08-24T10:11:02.729Z,11.40
2018-08-24T10:12:02.770Z,12.30
2018-08-24T10:13:02.743Z,16.10
2018-08-24T10:14:02.675Z,9.90
2018-08-24T10:15:02.761Z,12.70
2018-08-24T10:16:02.833Z,14.10
2018-08-24T10:17:02.647Z,16.80
2018-08-24T10:18:02.669Z,18.60
2018-08-24T10:19:02.688Z,14.50
2018-08-24T10:20:02.716Z,11.20
2018-08-24T10:21:03.588Z,15.20
2018-08-24T10:22:02.770Z,15.60
2018-08-24T10:23:02.629Z,12.50
2018-08-24T10:24:02.870Z,14.70
2018-08-24T10:25:02.489Z,19.40
2018-08-24T10:26:02.497Z,14.20
2018-08-24T10:27:02.591Z,11.60
2018-08-24T10:28:02.777Z,13.80
2018-08-24T10:29:02.832Z,15.20
2018-08-24T10:30:02.440Z,15.10
2018-08-24T10:31:02.573Z,12.30
2018-08-24T10:32:02.734Z,12.30
2018-08-24T10:33:02.653Z,10.40
2018-08-24T10:34:02.494Z,10.00
2018-08-24T10:35:02.514Z,11.00
2018-08-24T10:36:02.829Z,11.30
2018-08-24T10:37:02.591Z,11.60
2018-08-24T10:38:02.621Z,10.50
2018-08-24T10:39:02.511Z,15.50
2018-08-24T10:40:02.704Z,14.90
2018-08-24T10:41:02.574Z,23.10
2018-08-24T10:42:02.361Z,12.30
2018-08-24T10:43:02.412Z,18.80
2018-08-24T10:44:02.368Z,19.50
2018-08-24T10:45:02.259Z,13.30
2018-08-24T10:46:02.620Z,14.20
2018-08-24T10:47:06.169Z,16.30
2018-08-24T10:48:03.336Z,15.70
2018-08-24T10:49:02.229Z,9.40
2018-08-24T10:50:02.217Z,19.90
2018-08-24T10:51:02.322Z,11.80
2018-08-24T10:52:02.289Z,11.70
2018-08-24T10:53:02.302Z,20.90
2018-08-24T10:54:02.181Z,15.90
2018-08-24T10:55:02.375Z,11.70
2018-08-24T10:56:02.614Z,10.50
2018-08-24T10:57:02.466Z,16.50
2018-08-24T10:58:02.666Z,15.40
2018-08-24T10:59:02.283Z,13.80
2018-08-24T11:00:02.490Z,17.50
2018-08-24T11:01:02.540Z,18.10
2018-08-24T11:02:02.284Z,21.60
2018-08-24T11:03:02.430Z,20.30
2018-08-24T11:04:02.312Z,10.70
2018-08-24T11:05:04.129Z,20.30
2018-08-24T11:06:02.263Z,28.10
2018-08-24T11:07:02.063Z,19.60
2018-08-24T11:08:02.095Z,31.70
2018-08-24T11:09:02.149Z,22.50
2018-08-24T11:10:02.106Z,18.60
2018-08-24T11:11:02.065Z,17.60
2018-08-24T11:12:02.364Z,21.40
2018-08-24T11:13:02.104Z,27.70
2018-08-24T11:14:02.380Z,17.60
2018-08-24T11:15:02.099Z,21.70
2018-08-24T11:16:02.127Z,19.80
2018-08-24T11:17:01.930Z,25.70
2018-08-24T11:18:02.067Z,22.10
2018-08-24T11:19:02.035Z,21.60
2018-08-24T11:20:01.910Z,21.80
2018-08-24T11:21:02.065Z,24.10
2018-08-24T11:22:02.064Z,23.90
2018-08-24T11:23:02.156Z,20.80
2018-08-24T11:24:02.153Z,24.50
2018-08-24T11:25:02.131Z,20.20
2018-08-24T11:26:01.913Z,19.80
2018-08-24T11:27:01.906Z,21.10
2018-08-24T11:28:02.192Z,18.90
2018-08-24T11:29:01.889Z,18.00
2018-08-24T11:30:02.146Z,22.50
2018-08-24T11:31:01.917Z,15.20
2018-08-24T11:32:01.769Z,24.40
2018-08-24T11:33:02.100Z,21.10
2018-08-24T11:34:04.155Z,19.20
2018-08-24T11:35:01.734Z,27.10
2018-08-24T11:36:01.893Z,29.40
2018-08-24T11:37:01.724Z,33.10
2018-08-24T11:38:01.813Z,24.00
2018-08-24T11:39:01.971Z,34.90
2018-08-24T11:40:01.676Z,30.90
2018-08-24T11:41:02.120Z,27.40
2018-08-24T11:42:01.837Z,25.60
2018-08-24T11:43:01.786Z,29.50
2018-08-24T11:44:01.684Z,23.80
2018-08-24T11:45:01.976Z,29.30
2018-08-24T11:46:01.760Z,36.10
2018-08-24T11:47:01.991Z,29.00
2018-08-24T11:48:01.667Z,36.10
2018-08-24T11:49:01.714Z,38.40
2018-08-24T11:50:01.765Z,50.80
2018-08-24T11:51:02.461Z,41.60
2018-08-24T11:52:01.680Z,49.60
2018-08-24T11:53:01.953Z,59.90
2018-08-24T11:54:01.673Z,54.50
2018-08-24T11:55:01.515Z,50.10
2018-08-24T11:56:01.670Z,59.30
2018-08-24T11:57:01.628Z,69.30
2018-08-24T11:58:01.865Z,57.50
2018-08-24T11:59:01.582Z,67.50
2018-08-24T12:00:02.311Z,50.80
2018-08-24T12:01:01.468Z,77.20
2018-08-24T12:02:01.597Z,60.80
2018-08-24T12:03:01.813Z,57.10
2018-08-24T12:04:01.678Z,57.80
2018-08-24T12:05:01.420Z,80.20
2018-08-24T12:06:01.431Z,97.60
2018-08-24T12:07:01.693Z,114.00
2018-08-24T12:08:01.644Z,92.40
2018-08-24T12:09:01.497Z,97.50
2018-08-24T12:10:01.397Z,71.20
2018-08-24T12:11:01.736Z,78.60
2018-08-24T12:12:01.432Z,55.40
2018-08-24T12:13:01.707Z,45.10
2018-08-24T12:14:01.627Z,48.30
2018-08-24T12:15:01.503Z,35.20
2018-08-24T12:16:01.454Z,34.00
2018-08-24T12:17:01.282Z,24.60
2018-08-24T12:18:01.352Z,29.30
2018-08-24T12:19:01.643Z,28.20
2018-08-24T12:20:01.279Z,22.20
2018-08-24T12:21:01.318Z,27.20
2018-08-24T12:22:01.377Z,23.30
2018-08-24T12:23:01.434Z,25.50
2018-08-24T12:24:01.367Z,24.80
2018-08-24T12:25:01.218Z,22.20
2018-08-24T12:26:01.626Z,28.70
2018-08-24T12:27:01.316Z,27.20
2018-08-24T12:28:01.182Z,21.00
2018-08-24T12:29:01.530Z,23.60
2018-08-24T12:30:01.325Z,26.40
2018-08-24T12:31:01.360Z,25.80
2018-08-24T12:32:01.274Z,26.30
2018-08-24T12:33:01.243Z,20.20
2018-08-24T12:34:01.539Z,18.40
2018-08-24T12:35:01.265Z,32.30
2018-08-24T12:36:01.224Z,41.10
2018-08-24T12:37:01.208Z,33.80
2018-08-24T12:38:01.151Z,32.20
2018-08-24T12:39:01.085Z,37.70
2018-08-24T12:40:01.147Z,38.70
2018-08-24T12:41:01.174Z,38.40
2018-08-24T12:42:01.444Z,40.10
2018-08-24T12:43:01.123Z,45.60
2018-08-24T12:44:01.102Z,30.90
2018-08-24T12:45:01.102Z,32.40
2018-08-24T12:46:01.105Z,29.10
2018-08-24T12:47:01.102Z,21.00
2018-08-24T12:48:01.101Z,28.60
2018-08-24T12:49:01.224Z,21.50
2018-08-24T12:50:01.065Z,25.40
2018-08-24T12:51:01.037Z,21.00
2018-08-24T12:52:01.813Z,18.80
2018-08-24T12:53:01.020Z,19.10
2018-08-24T12:54:00.894Z,23.30
2018-08-24T12:55:00.995Z,23.20
2018-08-24T12:56:01.010Z,18.30
2018-08-24T12:57:01.388Z,19.20
2018-08-24T12:58:00.988Z,22.80
2018-08-24T12:59:00.908Z,19.00
2018-08-24T13:00:00.950Z,20.50
2018-08-24T13:01:00.959Z,24.00
2018-08-24T13:02:00.969Z,14.80
2018-08-24T13:03:00.954Z,20.30
2018-08-24T13:04:00.788Z,14.20
2018-08-24T13:05:00.768Z,20.80
2018-08-24T13:06:00.845Z,15.80
2018-08-24T13:07:00.881Z,15.30
2018-08-24T13:08:01.507Z,13.30
2018-08-24T13:09:00.749Z,13.20